sensor_id;sensor_type;location;lat;lon;timestamp;P1;durP1;ratioP1;P2;durP2;ratioP2
12474;SDS011;6302;42.624;23.334;2023-05-29T00:01:43;4.67;;;4.23;;
12474;SDS011;6302;42.624;23.334;2023-05-29T00:04:10;5.53;;;3.53;;
12474;SDS011;6302;42.624;23.334;2023-05-29T00:06:37;5.07;;;3.90;;
12474;SDS011;6302;42.624;23.334;2023-05-29T00:09:06;5.83;;;3.97;;
12474;SDS011;6302;42.624;23.334;2023-05-29T00:11:32;4.77;;;4.30;;
12474;SDS011;6302;42.624;23.334;2023-05-29T00:13:59;7.90;;;4.20;;
12474;SDS011;6302;42.624;23.334;2023-05-29T00:16:26;4.90;;;4.40;;
12474;SDS011;6302;42.624;23.334;2023-05-29T00:18:54;6.23;;;4.00;;
12474;SDS011;6302;42.624;23.334;2023-05-29T00:21:21;4.27;;;3.87;;
12474;SDS011;6302;42.624;23.334;2023-05-29T00:23:47;5.00;;;4.10;;
12474;SDS011;6302;42.624;23.334;2023-05-29T00:26:16;5.23;;;4.10;;
12474;SDS011;6302;42.624;23.334;2023-05-29T00:28:42;5.40;;;4.07;;
12474;SDS011;6302;42.624;23.334;2023-05-29T00:31:09;4.77;;;3.87;;
12474;SDS011;6302;42.624;23.334;2023-05-29T00:33:37;4.20;;;3.80;;
12474;SDS011;6302;42.624;23.334;2023-05-29T00:36:03;6.03;;;3.57;;
12474;SDS011;6302;42.624;23.334;2023-05-29T00:38:30;7.47;;;4.47;;
12474;SDS011;6302;42.624;23.334;2023-05-29T00:40:57;4.27;;;3.80;;
12474;SDS011;6302;42.624;23.334;2023-05-29T00:43:25;6.23;;;4.63;;
12474;SDS011;6302;42.624;23.334;2023-05-29T00:45:52;7.63;;;3.97;;
12474;SDS011;6302;42.624;23.334;2023-05-29T00:48:19;4.87;;;4.37;;
12474;SDS011;6302;42.624;23.334;2023-05-29T00:50:46;5.70;;;4.37;;
12474;SDS011;6302;42.624;23.334;2023-05-29T00:53:13;5.27;;;4.63;;
12474;SDS011;6302;42.624;23.334;2023-05-29T00:55:40;5.27;;;4.60;;
12474;SDS011;6302;42.624;23.334;2023-05-29T00:58:07;6.47;;;4.53;;
12474;SDS011;6302;42.624;23.334;2023-05-29T01:00:36;5.70;;;4.50;;
12474;SDS011;6302;42.624;23.334;2023-05-29T01:03:04;5.50;;;4.47;;
12474;SDS011;6302;42.624;23.334;2023-05-29T01:05:33;4.70;;;4.30;;
12474;SDS011;6302;42.624;23.334;2023-05-29T01:08:01;5.60;;;4.43;;
12474;SDS011;6302;42.624;23.334;2023-05-29T01:10:28;7.07;;;4.63;;
12474;SDS011;6302;42.624;23.334;2023-05-29T01:12:57;5.47;;;4.60;;
12474;SDS011;6302;42.624;23.334;2023-05-29T01:15:33;5.00;;;4.40;;
12474;SDS011;6302;42.624;23.334;2023-05-29T01:18:13;5.27;;;4.30;;
12474;SDS011;6302;42.624;23.334;2023-05-29T01:20:59;5.97;;;4.23;;
12474;SDS011;6302;42.624;23.334;2023-05-29T01:26:48;10.17;;;4.63;;
12474;SDS011;6302;42.624;23.334;2023-05-29T01:29:18;6.27;;;5.13;;
12474;SDS011;6302;42.624;23.334;2023-05-29T01:31:48;7.43;;;4.83;;
12474;SDS011;6302;42.624;23.334;2023-05-29T01:34:16;5.03;;;4.57;;
12474;SDS011;6302;42.624;23.334;2023-05-29T01:36:42;6.20;;;5.23;;
12474;SDS011;6302;42.624;23.334;2023-05-29T01:39:11;5.90;;;5.17;;
12474;SDS011;6302;42.624;23.334;2023-05-29T01:41:39;5.40;;;4.90;;
12474;SDS011;6302;42.624;23.334;2023-05-29T01:44:08;5.60;;;4.93;;
12474;SDS011;6302;42.624;23.334;2023-05-29T01:46:37;6.17;;;4.73;;
12474;SDS011;6302;42.624;23.334;2023-05-29T01:49:05;5.50;;;5.00;;
12474;SDS011;6302;42.624;23.334;2023-05-29T01:51:32;6.13;;;4.90;;
12474;SDS011;6302;42.624;23.334;2023-05-29T01:54:00;5.63;;;4.93;;
12474;SDS011;6302;42.624;23.334;2023-05-29T01:56:28;6.83;;;4.67;;
12474;SDS011;6302;42.624;23.334;2023-05-29T01:58:56;5.60;;;4.97;;
12474;SDS011;6302;42.624;23.334;2023-05-29T02:01:24;5.53;;;4.90;;
12474;SDS011;6302;42.624;23.334;2023-05-29T02:03:52;5.63;;;4.90;;
12474;SDS011;6302;42.624;23.334;2023-05-29T02:06:19;7.37;;;5.53;;
12474;SDS011;6302;42.624;23.334;2023-05-29T02:08:46;5.37;;;4.57;;
12474;SDS011;6302;42.624;23.334;2023-05-29T02:11:13;6.23;;;5.23;;
12474;SDS011;6302;42.624;23.334;2023-05-29T02:13:41;6.00;;;5.43;;
12474;SDS011;6302;42.624;23.334;2023-05-29T02:16:08;5.67;;;5.10;;
12474;SDS011;6302;42.624;23.334;2023-05-29T02:18:36;5.77;;;5.17;;
12474;SDS011;6302;42.624;23.334;2023-05-29T02:21:03;6.80;;;4.97;;
12474;SDS011;6302;42.624;23.334;2023-05-29T02:23:29;6.13;;;5.63;;
12474;SDS011;6302;42.624;23.334;2023-05-29T02:25:56;6.27;;;5.63;;
12474;SDS011;6302;42.624;23.334;2023-05-29T02:28:23;6.17;;;5.13;;
12474;SDS011;6302;42.624;23.334;2023-05-29T02:30:50;8.23;;;5.53;;
12474;SDS011;6302;42.624;23.334;2023-05-29T02:33:16;7.17;;;6.40;;
12474;SDS011;6302;42.624;23.334;2023-05-29T02:35:45;6.10;;;5.50;;
12474;SDS011;6302;42.624;23.334;2023-05-29T02:38:11;5.73;;;5.23;;
12474;SDS011;6302;42.624;23.334;2023-05-29T02:40:38;5.37;;;4.87;;
12474;SDS011;6302;42.624;23.334;2023-05-29T02:43:05;5.57;;;5.07;;
12474;SDS011;6302;42.624;23.334;2023-05-29T02:45:34;5.40;;;4.80;;
12474;SDS011;6302;42.624;23.334;2023-05-29T02:48:01;4.80;;;4.37;;
12474;SDS011;6302;42.624;23.334;2023-05-29T02:50:28;6.57;;;5.67;;
12474;SDS011;6302;42.624;23.334;2023-05-29T02:52:57;6.27;;;5.17;;
12474;SDS011;6302;42.624;23.334;2023-05-29T02:55:23;6.10;;;4.83;;
12474;SDS011;6302;42.624;23.334;2023-05-29T02:57:50;5.70;;;5.13;;
12474;SDS011;6302;42.624;23.334;2023-05-29T03:00:20;5.67;;;5.10;;
12474;SDS011;6302;42.624;23.334;2023-05-29T03:02:46;6.17;;;5.30;;
12474;SDS011;6302;42.624;23.334;2023-05-29T03:05:13;6.33;;;5.63;;
12474;SDS011;6302;42.624;23.334;2023-05-29T03:07:41;7.80;;;5.73;;
12474;SDS011;6302;42.624;23.334;2023-05-29T03:10:10;7.87;;;5.63;;
12474;SDS011;6302;42.624;23.334;2023-05-29T03:15:05;5.63;;;5.10;;
12474;SDS011;6302;42.624;23.334;2023-05-29T03:17:32;5.70;;;5.10;;
12474;SDS011;6302;42.624;23.334;2023-05-29T03:20:01;6.83;;;5.30;;
12474;SDS011;6302;42.624;23.334;2023-05-29T03:22:31;7.73;;;4.77;;
12474;SDS011;6302;42.624;23.334;2023-05-29T03:24:57;6.30;;;5.70;;
12474;SDS011;6302;42.624;23.334;2023-05-29T03:27:26;7.33;;;5.00;;
12474;SDS011;6302;42.624;23.334;2023-05-29T03:29:54;5.57;;;5.07;;
12474;SDS011;6302;42.624;23.334;2023-05-29T03:32:21;5.63;;;5.13;;
12474;SDS011;6302;42.624;23.334;2023-05-29T03:34:47;6.00;;;5.17;;
12474;SDS011;6302;42.624;23.334;2023-05-29T03:37:14;7.43;;;5.80;;
12474;SDS011;6302;42.624;23.334;2023-05-29T03:39:41;6.53;;;4.73;;
12474;SDS011;6302;42.624;23.334;2023-05-29T03:42:08;8.97;;;5.07;;
12474;SDS011;6302;42.624;23.334;2023-05-29T03:44:36;6.07;;;5.10;;
12474;SDS011;6302;42.624;23.334;2023-05-29T03:47:03;8.40;;;4.77;;
12474;SDS011;6302;42.624;23.334;2023-05-29T03:49:30;7.47;;;5.03;;
12474;SDS011;6302;42.624;23.334;2023-05-29T03:51:57;5.37;;;4.87;;
12474;SDS011;6302;42.624;23.334;2023-05-29T03:54:23;4.97;;;4.47;;
12474;SDS011;6302;42.624;23.334;2023-05-29T03:56:50;7.43;;;5.10;;
12474;SDS011;6302;42.624;23.334;2023-05-29T03:59:17;12.00;;;5.83;;
12474;SDS011;6302;42.624;23.334;2023-05-29T04:01:45;8.40;;;5.37;;
12474;SDS011;6302;42.624;23.334;2023-05-29T04:04:12;6.37;;;4.80;;
12474;SDS011;6302;42.624;23.334;2023-05-29T04:06:39;9.27;;;5.40;;
12474;SDS011;6302;42.624;23.334;2023-05-29T04:09:06;7.43;;;5.67;;
12474;SDS011;6302;42.624;23.334;2023-05-29T04:11:34;7.30;;;5.17;;
12474;SDS011;6302;42.624;23.334;2023-05-29T04:14:00;6.47;;;5.23;;
12474;SDS011;6302;42.624;23.334;2023-05-29T04:16:27;6.00;;;5.13;;
12474;SDS011;6302;42.624;23.334;2023-05-29T04:18:56;5.93;;;4.83;;
12474;SDS011;6302;42.624;23.334;2023-05-29T04:21:23;10.20;;;6.20;;
12474;SDS011;6302;42.624;23.334;2023-05-29T04:23:49;7.23;;;5.27;;
12474;SDS011;6302;42.624;23.334;2023-05-29T04:26:16;5.07;;;4.53;;
12474;SDS011;6302;42.624;23.334;2023-05-29T04:28:43;5.47;;;4.97;;
12474;SDS011;6302;42.624;23.334;2023-05-29T04:31:10;8.23;;;5.07;;
12474;SDS011;6302;42.624;23.334;2023-05-29T04:33:39;5.30;;;4.80;;
12474;SDS011;6302;42.624;23.334;2023-05-29T04:36:07;4.83;;;4.43;;
12474;SDS011;6302;42.624;23.334;2023-05-29T04:38:36;4.50;;;4.10;;
12474;SDS011;6302;42.624;23.334;2023-05-29T04:41:02;4.30;;;4.00;;
12474;SDS011;6302;42.624;23.334;2023-05-29T04:43:29;6.03;;;3.97;;
12474;SDS011;6302;42.624;23.334;2023-05-29T04:45:56;4.73;;;4.20;;
12474;SDS011;6302;42.624;23.334;2023-05-29T04:48:23;13.20;;;4.70;;
12474;SDS011;6302;42.624;23.334;2023-05-29T04:50:50;4.30;;;3.80;;
12474;SDS011;6302;42.624;23.334;2023-05-29T04:53:19;4.63;;;3.80;;
12474;SDS011;6302;42.624;23.334;2023-05-29T04:55:46;4.07;;;3.67;;
12474;SDS011;6302;42.624;23.334;2023-05-29T04:58:12;5.50;;;4.30;;
12474;SDS011;6302;42.624;23.334;2023-05-29T05:00:39;4.07;;;3.37;;
12474;SDS011;6302;42.624;23.334;2023-05-29T05:03:07;4.60;;;3.57;;
12474;SDS011;6302;42.624;23.334;2023-05-29T05:05:35;4.60;;;3.20;;
12474;SDS011;6302;42.624;23.334;2023-05-29T05:08:02;4.07;;;3.13;;
12474;SDS011;6302;42.624;23.334;2023-05-29T05:10:30;4.40;;;2.90;;
12474;SDS011;6302;42.624;23.334;2023-05-29T05:12:57;4.73;;;2.97;;
12474;SDS011;6302;42.624;23.334;2023-05-29T05:15:24;9.90;;;4.13;;
12474;SDS011;6302;42.624;23.334;2023-05-29T05:17:51;4.47;;;4.03;;
12474;SDS011;6302;42.624;23.334;2023-05-29T05:20:17;4.80;;;4.30;;
12474;SDS011;6302;42.624;23.334;2023-05-29T05:22:44;10.67;;;4.07;;
12474;SDS011;6302;42.624;23.334;2023-05-29T05:25:11;6.23;;;4.30;;
12474;SDS011;6302;42.624;23.334;2023-05-29T05:27:39;8.67;;;4.00;;
12474;SDS011;6302;42.624;23.334;2023-05-29T05:30:07;4.17;;;3.30;;
12474;SDS011;6302;42.624;23.334;2023-05-29T05:32:34;3.37;;;3.07;;
12474;SDS011;6302;42.624;23.334;2023-05-29T05:35:01;4.47;;;3.30;;
12474;SDS011;6302;42.624;23.334;2023-05-29T05:37:28;7.00;;;3.87;;
12474;SDS011;6302;42.624;23.334;2023-05-29T05:39:55;4.83;;;3.60;;
12474;SDS011;6302;42.624;23.334;2023-05-29T05:42:23;4.10;;;3.70;;
12474;SDS011;6302;42.624;23.334;2023-05-29T05:44:51;5.77;;;3.80;;
12474;SDS011;6302;42.624;23.334;2023-05-29T05:47:18;7.40;;;3.77;;
12474;SDS011;6302;42.624;23.334;2023-05-29T05:49:45;5.40;;;3.77;;
12474;SDS011;6302;42.624;23.334;2023-05-29T05:52:12;4.67;;;3.57;;
12474;SDS011;6302;42.624;23.334;2023-05-29T05:54:39;7.50;;;3.80;;
12474;SDS011;6302;42.624;23.334;2023-05-29T05:57:05;4.07;;;3.63;;
12474;SDS011;6302;42.624;23.334;2023-05-29T05:59:32;5.77;;;3.60;;
12474;SDS011;6302;42.624;23.334;2023-05-29T06:02:01;5.00;;;3.97;;
12474;SDS011;6302;42.624;23.334;2023-05-29T06:04:28;10.93;;;5.07;;
12474;SDS011;6302;42.624;23.334;2023-05-29T06:06:55;6.70;;;4.63;;
12474;SDS011;6302;42.624;23.334;2023-05-29T06:09:22;8.23;;;5.50;;
12474;SDS011;6302;42.624;23.334;2023-05-29T06:11:50;7.03;;;6.10;;
12474;SDS011;6302;42.624;23.334;2023-05-29T06:14:17;8.40;;;6.50;;
12474;SDS011;6302;42.624;23.334;2023-05-29T06:16:44;7.07;;;5.73;;
12474;SDS011;6302;42.624;23.334;2023-05-29T06:19:13;9.90;;;5.90;;
12474;SDS011;6302;42.624;23.334;2023-05-29T06:21:40;9.77;;;5.60;;
12474;SDS011;6302;42.624;23.334;2023-05-29T06:24:07;6.47;;;5.70;;
12474;SDS011;6302;42.624;23.334;2023-05-29T06:26:33;8.57;;;6.20;;
12474;SDS011;6302;42.624;23.334;2023-05-29T06:29:01;5.90;;;5.10;;
12474;SDS011;6302;42.624;23.334;2023-05-29T06:31:28;7.63;;;5.60;;
12474;SDS011;6302;42.624;23.334;2023-05-29T06:33:55;8.47;;;5.70;;
12474;SDS011;6302;42.624;23.334;2023-05-29T06:36:23;11.53;;;5.50;;
12474;SDS011;6302;42.624;23.334;2023-05-29T06:38:50;6.23;;;5.63;;
12474;SDS011;6302;42.624;23.334;2023-05-29T06:41:17;8.20;;;5.43;;
12474;SDS011;6302;42.624;23.334;2023-05-29T06:43:44;9.07;;;5.73;;
12474;SDS011;6302;42.624;23.334;2023-05-29T06:46:11;8.20;;;5.50;;
12474;SDS011;6302;42.624;23.334;2023-05-29T06:48:38;6.37;;;4.70;;
12474;SDS011;6302;42.624;23.334;2023-05-29T06:51:05;6.07;;;4.33;;
12474;SDS011;6302;42.624;23.334;2023-05-29T06:53:35;7.40;;;4.80;;
12474;SDS011;6302;42.624;23.334;2023-05-29T06:56:02;6.83;;;4.57;;
12474;SDS011;6302;42.624;23.334;2023-05-29T06:58:29;7.60;;;4.07;;
12474;SDS011;6302;42.624;23.334;2023-05-29T07:00:56;5.23;;;3.80;;
12474;SDS011;6302;42.624;23.334;2023-05-29T07:03:23;9.17;;;3.73;;
12474;SDS011;6302;42.624;23.334;2023-05-29T07:05:51;7.63;;;3.60;;
12474;SDS011;6302;42.624;23.334;2023-05-29T07:08:18;5.67;;;3.10;;
12474;SDS011;6302;42.624;23.334;2023-05-29T07:10:46;4.57;;;3.23;;
12474;SDS011;6302;42.624;23.334;2023-05-29T07:13:14;4.23;;;3.03;;
12474;SDS011;6302;42.624;23.334;2023-05-29T07:15:43;3.57;;;3.20;;
12474;SDS011;6302;42.624;23.334;2023-05-29T07:18:09;3.83;;;2.80;;
12474;SDS011;6302;42.624;23.334;2023-05-29T07:20:36;2.80;;;2.43;;
12474;SDS011;6302;42.624;23.334;2023-05-29T07:23:03;2.90;;;2.60;;
12474;SDS011;6302;42.624;23.334;2023-05-29T07:25:30;5.17;;;2.60;;
12474;SDS011;6302;42.624;23.334;2023-05-29T07:27:58;3.33;;;2.67;;
12474;SDS011;6302;42.624;23.334;2023-05-29T07:30:25;2.40;;;2.20;;
12474;SDS011;6302;42.624;23.334;2023-05-29T07:32:52;4.83;;;3.00;;
12474;SDS011;6302;42.624;23.334;2023-05-29T07:35:19;7.97;;;2.77;;
12474;SDS011;6302;42.624;23.334;2023-05-29T07:37:46;3.13;;;2.80;;
12474;SDS011;6302;42.624;23.334;2023-05-29T07:40:14;5.53;;;3.60;;
12474;SDS011;6302;42.624;23.334;2023-05-29T07:42:41;4.47;;;3.20;;
12474;SDS011;6302;42.624;23.334;2023-05-29T07:45:09;5.53;;;2.87;;
12474;SDS011;6302;42.624;23.334;2023-05-29T07:47:37;4.63;;;3.10;;
12474;SDS011;6302;42.624;23.334;2023-05-29T07:50:05;5.13;;;2.87;;
12474;SDS011;6302;42.624;23.334;2023-05-29T07:52:33;3.23;;;2.93;;
12474;SDS011;6302;42.624;23.334;2023-05-29T07:55:00;5.57;;;3.03;;
12474;SDS011;6302;42.624;23.334;2023-05-29T07:57:27;3.10;;;2.80;;
12474;SDS011;6302;42.624;23.334;2023-05-29T07:59:55;3.97;;;3.13;;
12474;SDS011;6302;42.624;23.334;2023-05-29T08:02:24;5.70;;;3.37;;
12474;SDS011;6302;42.624;23.334;2023-05-29T08:04:51;4.47;;;3.17;;
12474;SDS011;6302;42.624;23.334;2023-05-29T08:07:18;3.40;;;2.70;;
12474;SDS011;6302;42.624;23.334;2023-05-29T08:09:45;3.47;;;3.00;;
12474;SDS011;6302;42.624;23.334;2023-05-29T08:12:12;4.33;;;3.10;;
12474;SDS011;6302;42.624;23.334;2023-05-29T08:14:38;3.17;;;2.87;;
12474;SDS011;6302;42.624;23.334;2023-05-29T08:17:05;6.03;;;3.40;;
12474;SDS011;6302;42.624;23.334;2023-05-29T08:19:33;3.30;;;3.00;;
12474;SDS011;6302;42.624;23.334;2023-05-29T08:22:00;5.07;;;3.33;;
12474;SDS011;6302;42.624;23.334;2023-05-29T08:24:27;5.83;;;2.87;;
12474;SDS011;6302;42.624;23.334;2023-05-29T08:26:54;4.30;;;3.10;;
12474;SDS011;6302;42.624;23.334;2023-05-29T08:29:20;5.30;;;3.50;;
12474;SDS011;6302;42.624;23.334;2023-05-29T08:31:48;7.87;;;3.67;;
12474;SDS011;6302;42.624;23.334;2023-05-29T08:34:14;4.67;;;3.20;;
12474;SDS011;6302;42.624;23.334;2023-05-29T08:36:43;3.23;;;2.93;;
12474;SDS011;6302;42.624;23.334;2023-05-29T08:39:10;5.13;;;3.30;;
12474;SDS011;6302;42.624;23.334;2023-05-29T08:41:46;5.20;;;4.03;;
12474;SDS011;6302;42.624;23.334;2023-05-29T08:44:18;4.87;;;3.40;;
12474;SDS011;6302;42.624;23.334;2023-05-29T08:46:48;4.23;;;3.47;;
12474;SDS011;6302;42.624;23.334;2023-05-29T08:49:20;4.23;;;3.53;;
12474;SDS011;6302;42.624;23.334;2023-05-29T08:51:52;3.80;;;3.40;;
12474;SDS011;6302;42.624;23.334;2023-05-29T08:54:28;3.57;;;3.07;;
12474;SDS011;6302;42.624;23.334;2023-05-29T08:56:57;4.53;;;3.07;;
12474;SDS011;6302;42.624;23.334;2023-05-29T08:59:24;4.40;;;3.30;;
12474;SDS011;6302;42.624;23.334;2023-05-29T09:01:52;3.37;;;3.07;;
12474;SDS011;6302;42.624;23.334;2023-05-29T09:04:19;3.50;;;2.93;;
12474;SDS011;6302;42.624;23.334;2023-05-29T09:06:46;4.17;;;3.30;;
12474;SDS011;6302;42.624;23.334;2023-05-29T09:09:15;4.60;;;3.17;;
12474;SDS011;6302;42.624;23.334;2023-05-29T09:11:43;4.07;;;2.87;;
12474;SDS011;6302;42.624;23.334;2023-05-29T09:14:11;3.97;;;3.30;;
12474;SDS011;6302;42.624;23.334;2023-05-29T09:16:57;5.37;;;3.30;;
12474;SDS011;6302;42.624;23.334;2023-05-29T09:19:25;5.37;;;2.93;;
12474;SDS011;6302;42.624;23.334;2023-05-29T09:21:52;3.37;;;2.97;;
12474;SDS011;6302;42.624;23.334;2023-05-29T09:24:28;3.58;;;3.20;;
12474;SDS011;6302;42.624;23.334;2023-05-29T09:26:55;3.97;;;2.97;;
12474;SDS011;6302;42.624;23.334;2023-05-29T09:29:22;3.27;;;2.97;;
12474;SDS011;6302;42.624;23.334;2023-05-29T09:31:50;4.88;;;2.88;;
12474;SDS011;6302;42.624;23.334;2023-05-29T09:34:17;3.47;;;3.17;;
12474;SDS011;6302;42.624;23.334;2023-05-29T09:36:43;7.33;;;3.80;;
12474;SDS011;6302;42.624;23.334;2023-05-29T09:39:10;4.43;;;2.80;;
12474;SDS011;6302;42.624;23.334;2023-05-29T09:41:42;3.90;;;2.90;;
12474;SDS011;6302;42.624;23.334;2023-05-29T09:44:11;3.58;;;3.28;;
12474;SDS011;6302;42.624;23.334;2023-05-29T09:46:39;4.40;;;3.30;;
12474;SDS011;6302;42.624;23.334;2023-05-29T09:49:08;4.97;;;3.20;;
12474;SDS011;6302;42.624;23.334;2023-05-29T09:51:37;3.55;;;3.15;;
12474;SDS011;6302;42.624;23.334;2023-05-29T09:54:14;4.50;;;2.97;;
12474;SDS011;6302;42.624;23.334;2023-05-29T09:56:43;5.57;;;3.13;;
12474;SDS011;6302;42.624;23.334;2023-05-29T09:59:11;3.75;;;2.85;;
12474;SDS011;6302;42.624;23.334;2023-05-29T10:01:40;3.30;;;2.73;;
12474;SDS011;6302;42.624;23.334;2023-05-29T10:04:09;4.45;;;3.13;;
12474;SDS011;6302;42.624;23.334;2023-05-29T10:06:37;4.70;;;3.23;;
12474;SDS011;6302;42.624;23.334;2023-05-29T10:09:08;3.27;;;2.97;;
12474;SDS011;6302;42.624;23.334;2023-05-29T10:11:39;3.40;;;3.10;;
12474;SDS011;6302;42.624;23.334;2023-05-29T10:14:09;4.80;;;3.40;;
12474;SDS011;6302;42.624;23.334;2023-05-29T10:16:41;3.77;;;3.23;;
12474;SDS011;6302;42.624;23.334;2023-05-29T10:19:10;3.33;;;3.07;;
12474;SDS011;6302;42.624;23.334;2023-05-29T10:21:39;4.43;;;3.13;;
12474;SDS011;6302;42.624;23.334;2023-05-29T10:24:07;3.50;;;3.20;;
12474;SDS011;6302;42.624;23.334;2023-05-29T10:26:38;3.60;;;3.30;;
12474;SDS011;6302;42.624;23.334;2023-05-29T10:29:10;10.40;;;2.67;;
12474;SDS011;6302;42.624;23.334;2023-05-29T10:31:46;3.30;;;3.00;;
12474;SDS011;6302;42.624;23.334;2023-05-29T10:34:27;4.60;;;3.10;;
12474;SDS011;6302;42.624;23.334;2023-05-29T10:37:01;2.95;;;2.75;;
12474;SDS011;6302;42.624;23.334;2023-05-29T10:39:32;4.43;;;3.58;;
12474;SDS011;6302;42.624;23.334;2023-05-29T10:41:59;5.68;;;3.47;;
12474;SDS011;6302;42.624;23.334;2023-05-29T10:47:12;4.40;;;3.70;;
12474;SDS011;6302;42.624;23.334;2023-05-29T10:49:49;4.07;;;3.10;;
12474;SDS011;6302;42.624;23.334;2023-05-29T10:52:18;4.57;;;3.30;;
12474;SDS011;6302;42.624;23.334;2023-05-29T10:54:52;7.07;;;3.53;;
12474;SDS011;6302;42.624;23.334;2023-05-29T10:57:20;8.88;;;4.45;;
12474;SDS011;6302;42.624;23.334;2023-05-29T10:59:58;11.55;;;4.75;;
12474;SDS011;6302;42.624;23.334;2023-05-29T11:02:29;4.93;;;4.15;;
12474;SDS011;6302;42.624;23.334;2023-05-29T11:05:06;6.30;;;3.87;;
12474;SDS011;6302;42.624;23.334;2023-05-29T11:07:52;5.07;;;4.45;;
12474;SDS011;6302;42.624;23.334;2023-05-29T11:13:27;6.32;;;4.63;;
12474;SDS011;6302;42.624;23.334;2023-05-29T11:16:13;5.25;;;4.20;;
12474;SDS011;6302;42.624;23.334;2023-05-29T11:18:46;5.90;;;4.20;;
12474;SDS011;6302;42.624;23.334;2023-05-29T11:21:29;6.00;;;4.55;;
12474;SDS011;6302;42.624;23.334;2023-05-29T11:23:58;7.65;;;4.50;;
12474;SDS011;6302;42.624;23.334;2023-05-29T11:26:29;5.68;;;4.03;;
12474;SDS011;6302;42.624;23.334;2023-05-29T11:28:59;9.10;;;4.75;;
12474;SDS011;6302;42.624;23.334;2023-05-29T11:31:28;5.68;;;4.15;;
12474;SDS011;6302;42.624;23.334;2023-05-29T11:33:58;4.15;;;3.72;;
12474;SDS011;6302;42.624;23.334;2023-05-29T11:36:29;3.67;;;3.38;;
12474;SDS011;6302;42.624;23.334;2023-05-29T11:38:57;6.38;;;3.40;;
12474;SDS011;6302;42.624;23.334;2023-05-29T11:41:24;3.60;;;3.30;;
12474;SDS011;6302;42.624;23.334;2023-05-29T11:43:58;3.28;;;2.97;;
12474;SDS011;6302;42.624;23.334;2023-05-29T11:46:30;3.15;;;2.85;;
12474;SDS011;6302;42.624;23.334;2023-05-29T11:48:57;4.70;;;3.45;;
12474;SDS011;6302;42.624;23.334;2023-05-29T11:51:24;3.75;;;3.45;;
12474;SDS011;6302;42.624;23.334;2023-05-29T11:53:51;4.75;;;3.22;;
12474;SDS011;6302;42.624;23.334;2023-05-29T11:56:23;3.25;;;3.03;;
12474;SDS011;6302;42.624;23.334;2023-05-29T11:58:50;3.67;;;3.05;;
12474;SDS011;6302;42.624;23.334;2023-05-29T12:01:20;3.40;;;3.10;;
12474;SDS011;6302;42.624;23.334;2023-05-29T12:03:50;3.00;;;2.70;;
12474;SDS011;6302;42.624;23.334;2023-05-29T12:06:30;10.90;;;7.50;;
12474;SDS011;6302;42.624;23.334;2023-05-29T12:08:58;6.00;;;4.30;;
12474;SDS011;6302;42.624;23.334;2023-05-29T12:11:26;4.28;;;3.47;;
12474;SDS011;6302;42.624;23.334;2023-05-29T12:13:55;4.97;;;3.17;;
12474;SDS011;6302;42.624;23.334;2023-05-29T12:16:22;7.22;;;4.05;;
12474;SDS011;6302;42.624;23.334;2023-05-29T12:18:52;8.07;;;4.03;;
12474;SDS011;6302;42.624;23.334;2023-05-29T12:21:21;10.30;;;5.30;;
12474;SDS011;6302;42.624;23.334;2023-05-29T12:23:47;8.40;;;4.73;;
12474;SDS011;6302;42.624;23.334;2023-05-29T12:26:14;6.90;;;4.80;;
12474;SDS011;6302;42.624;23.334;2023-05-29T12:28:42;6.27;;;4.47;;
12474;SDS011;6302;42.624;23.334;2023-05-29T12:31:10;8.73;;;5.33;;
12474;SDS011;6302;42.624;23.334;2023-05-29T12:33:40;6.67;;;5.70;;
12474;SDS011;6302;42.624;23.334;2023-05-29T12:36:11;6.03;;;5.20;;
12474;SDS011;6302;42.624;23.334;2023-05-29T12:38:46;7.33;;;4.73;;
12474;SDS011;6302;42.624;23.334;2023-05-29T12:41:21;5.67;;;4.73;;
12474;SDS011;6302;42.624;23.334;2023-05-29T12:43:52;4.93;;;4.43;;
12474;SDS011;6302;42.624;23.334;2023-05-29T12:46:20;5.40;;;4.07;;
12474;SDS011;6302;42.624;23.334;2023-05-29T12:48:47;5.73;;;4.23;;
12474;SDS011;6302;42.624;23.334;2023-05-29T12:51:16;6.30;;;4.00;;
12474;SDS011;6302;42.624;23.334;2023-05-29T12:53:48;5.43;;;4.30;;
12474;SDS011;6302;42.624;23.334;2023-05-29T12:56:15;4.43;;;4.00;;
12474;SDS011;6302;42.624;23.334;2023-05-29T12:58:42;6.73;;;4.13;;
12474;SDS011;6302;42.624;23.334;2023-05-29T13:01:11;3.87;;;3.53;;
12474;SDS011;6302;42.624;23.334;2023-05-29T13:03:40;5.93;;;4.17;;
12474;SDS011;6302;42.624;23.334;2023-05-29T13:06:06;8.27;;;4.77;;
12474;SDS011;6302;42.624;23.334;2023-05-29T13:08:35;11.23;;;5.27;;
12474;SDS011;6302;42.624;23.334;2023-05-29T13:11:02;6.80;;;4.67;;
12474;SDS011;6302;42.624;23.334;2023-05-29T13:13:29;10.67;;;5.20;;
12474;SDS011;6302;42.624;23.334;2023-05-29T13:15:55;7.37;;;5.20;;
12474;SDS011;6302;42.624;23.334;2023-05-29T13:18:22;5.97;;;4.43;;
12474;SDS011;6302;42.624;23.334;2023-05-29T13:20:49;5.97;;;4.73;;
12474;SDS011;6302;42.624;23.334;2023-05-29T13:23:16;5.67;;;5.10;;
12474;SDS011;6302;42.624;23.334;2023-05-29T13:25:44;6.77;;;4.77;;
12474;SDS011;6302;42.624;23.334;2023-05-29T13:28:13;6.27;;;5.20;;
12474;SDS011;6302;42.624;23.334;2023-05-29T13:30:40;7.50;;;5.07;;
12474;SDS011;6302;42.624;23.334;2023-05-29T13:33:06;8.63;;;5.07;;
12474;SDS011;6302;42.624;23.334;2023-05-29T13:35:33;8.80;;;4.77;;
12474;SDS011;6302;42.624;23.334;2023-05-29T13:38:00;10.00;;;5.17;;
12474;SDS011;6302;42.624;23.334;2023-05-29T13:40:27;8.37;;;5.33;;
12474;SDS011;6302;42.624;23.334;2023-05-29T13:42:55;6.00;;;5.40;;
12474;SDS011;6302;42.624;23.334;2023-05-29T13:45:22;6.10;;;5.07;;
12474;SDS011;6302;42.624;23.334;2023-05-29T13:47:49;8.20;;;5.47;;
12474;SDS011;6302;42.624;23.334;2023-05-29T13:50:16;5.40;;;4.83;;
12474;SDS011;6302;42.624;23.334;2023-05-29T13:52:43;6.67;;;4.73;;
12474;SDS011;6302;42.624;23.334;2023-05-29T13:55:09;7.30;;;4.67;;
12474;SDS011;6302;42.624;23.334;2023-05-29T13:57:36;7.77;;;4.93;;
12474;SDS011;6302;42.624;23.334;2023-05-29T14:00:06;5.87;;;4.67;;
12474;SDS011;6302;42.624;23.334;2023-05-29T14:02:34;7.77;;;4.83;;
12474;SDS011;6302;42.624;23.334;2023-05-29T14:05:01;5.20;;;4.17;;
12474;SDS011;6302;42.624;23.334;2023-05-29T14:07:28;7.83;;;4.57;;
12474;SDS011;6302;42.624;23.334;2023-05-29T14:09:54;4.73;;;4.33;;
12474;SDS011;6302;42.624;23.334;2023-05-29T14:12:21;5.63;;;4.63;;
12474;SDS011;6302;42.624;23.334;2023-05-29T14:14:48;5.80;;;4.70;;
12474;SDS011;6302;42.624;23.334;2023-05-29T14:17:16;4.90;;;4.30;;
12474;SDS011;6302;42.624;23.334;2023-05-29T14:19:44;5.00;;;4.50;;
12474;SDS011;6302;42.624;23.334;2023-05-29T14:22:12;7.40;;;5.10;;
12474;SDS011;6302;42.624;23.334;2023-05-29T14:24:39;5.73;;;4.20;;
12474;SDS011;6302;42.624;23.334;2023-05-29T14:27:06;5.00;;;4.57;;
12474;SDS011;6302;42.624;23.334;2023-05-29T14:29:33;5.10;;;4.43;;
12474;SDS011;6302;42.624;23.334;2023-05-29T14:31:59;4.83;;;4.30;;
12474;SDS011;6302;42.624;23.334;2023-05-29T14:34:27;7.60;;;5.00;;
12474;SDS011;6302;42.624;23.334;2023-05-29T14:36:54;5.27;;;4.73;;
12474;SDS011;6302;42.624;23.334;2023-05-29T14:39:21;5.83;;;4.80;;
12474;SDS011;6302;42.624;23.334;2023-05-29T14:41:48;6.10;;;4.10;;
12474;SDS011;6302;42.624;23.334;2023-05-29T14:44:14;3.90;;;3.40;;
12474;SDS011;6302;42.624;23.334;2023-05-29T14:46:41;5.60;;;4.37;;
12474;SDS011;6302;42.624;23.334;2023-05-29T14:49:08;4.17;;;3.53;;
12474;SDS011;6302;42.624;23.334;2023-05-29T14:51:36;3.57;;;3.27;;
12474;SDS011;6302;42.624;23.334;2023-05-29T14:54:04;5.20;;;3.47;;
12474;SDS011;6302;42.624;23.334;2023-05-29T14:56:30;3.30;;;3.00;;
12474;SDS011;6302;42.624;23.334;2023-05-29T14:58:57;3.10;;;2.80;;
12474;SDS011;6302;42.624;23.334;2023-05-29T15:01:24;3.30;;;3.00;;
12474;SDS011;6302;42.624;23.334;2023-05-29T15:03:51;2.90;;;2.70;;
12474;SDS011;6302;42.624;23.334;2023-05-29T15:06:17;3.37;;;3.03;;